Time;durP1;ratioP1;P1;durP2;ratioP2;P2;SDS_P1;SDS_P2;PMS_P1;PMS_P2;Temp;Humidity;BMP_temperature;BMP_pressure;BME280_temperature;BME280_humidity;BME280_pressure;Samples;Min_cycle;Max_cycle;Signal;HPM_P1;HPM_P2
2022/01/10 00:00:14;;;;;;;1.20;0.65;;;18.70;57.00;;;;;;5031032;28;20018;-74
2022/01/10 00:02:41;;;;;;;0.60;0.45;;;18.70;57.10;;;;;;5014731;28;20391;-74
2022/01/10 00:05:07;;;;;;;0.80;0.40;;;18.70;57.10;;;;;;5031329;28;20104;-75
2022/01/10 00:07:32;;;;;;;0.63;0.35;;;18.70;57.10;;;;;;5040964;28;20036;-75
2022/01/10 00:09:58;;;;;;;0.70;0.40;;;18.70;57.20;;;;;;5021033;28;20051;-75
2022/01/10 00:12:24;;;;;;;0.60;0.30;;;18.70;57.20;;;;;;5034473;28;20022;-74
2022/01/10 00:14:49;;;;;;;0.65;0.40;;;18.70;57.30;;;;;;5032913;28;20091;-75
2022/01/10 00:17:15;;;;;;;0.25;0.25;;;18.70;57.30;;;;;;5036745;28;20029;-74
2022/01/10 00:19:40;;;;;;;0.85;0.40;;;18.70;57.30;;;;;;5037328;28;20053;-74
2022/01/10 00:22:08;;;;;;;0.63;0.35;;;18.60;57.30;;;;;;5047773;28;20397;-74
2022/01/10 00:24:33;;;;;;;0.95;0.45;;;18.60;57.40;;;;;;5044208;28;20463;-74
2022/01/10 00:26:59;;;;;;;0.77;0.32;;;18.60;57.30;;;;;;5040177;28;20053;-74
2022/01/10 00:29:25;;;;;;;0.40;0.30;;;18.60;57.40;;;;;;5049959;28;20422;-74
2022/01/10 00:31:50;;;;;;;0.45;0.40;;;18.60;57.40;;;;;;5021783;28;20049;-74
2022/01/10 00:34:16;;;;;;;0.20;0.20;;;18.60;58.40;;;;;;5047564;28;20033;-74
2022/01/10 00:36:41;;;;;;;0.38;0.35;;;18.60;57.50;;;;;;5017710;28;20044;-74
2022/01/10 00:39:07;;;;;;;0.47;0.47;;;18.60;57.50;;;;;;5034253;28;20368;-74
2022/01/10 00:41:33;;;;;;;0.30;0.30;;;18.60;57.50;;;;;;5033954;28;20021;-74
2022/01/10 00:44:01;;;;;;;1.58;0.30;;;18.60;57.50;;;;;;5035135;28;20100;-74
2022/01/10 00:46:26;;;;;;;0.32;0.30;;;18.60;57.60;;;;;;5017861;28;20571;-74
2022/01/10 00:48:52;;;;;;;0.60;0.50;;;18.50;57.60;;;;;;5034228;28;20486;-75
2022/01/10 00:51:18;;;;;;;0.57;0.45;;;18.60;57.60;;;;;;5035143;28;20516;-74
2022/01/10 00:53:44;;;;;;;1.20;0.20;;;18.50;57.60;;;;;;5018881;28;20018;-74
2022/01/10 00:56:09;;;;;;;0.57;0.40;;;18.60;57.70;;;;;;5048768;28;20480;-74
2022/01/10 00:58:36;;;;;;;0.30;0.30;;;18.50;57.70;;;;;;5036704;28;20033;-74
2022/01/10 01:01:03;;;;;;;0.30;0.30;;;18.50;57.70;;;;;;5037348;28;20019;-74
2022/01/10 01:03:29;;;;;;;0.77;0.40;;;18.50;57.70;;;;;;5037018;28;20052;-74
2022/01/10 01:05:54;;;;;;;0.40;0.30;;;18.50;57.80;;;;;;5036908;28;20049;-74
2022/01/10 01:08:20;;;;;;;0.20;0.20;;;18.50;57.80;;;;;;5053639;28;20029;-74
2022/01/10 01:24:02;;;;;;;0.30;0.20;;;18.40;57.90;;;;;;5053584;28;20070;-74
2022/01/10 01:26:29;;;;;;;0.40;0.30;;;18.40;57.90;;;;;;5052942;28;20517;-74
2022/01/10 01:28:54;;;;;;;0.85;0.40;;;18.40;58.00;;;;;;5036424;28;20044;-75
2022/01/10 01:31:20;;;;;;;0.30;0.30;;;18.40;58.00;;;;;;5036556;28;20480;-74
2022/01/10 01:33:46;;;;;;;0.32;0.22;;;18.40;58.00;;;;;;5036274;28;20029;-74
2022/01/10 01:36:11;;;;;;;0.40;0.35;;;18.40;58.00;;;;;;5036406;28;20040;-75
2022/01/10 01:38:37;;;;;;;0.60;0.50;;;18.40;58.10;;;;;;5036113;28;20025;-75
2022/01/10 01:41:20;;;;;;;0.38;0.30;;;18.40;58.10;;;;;;5030422;28;20147;-75
2022/01/10 01:43:46;;;;;;;2.50;0.55;;;18.40;58.10;;;;;;5004996;28;20029;-74
2022/01/10 01:46:12;;;;;;;0.70;0.40;;;18.40;58.10;;;;;;5048026;28;20116;-74
2022/01/10 01:48:38;;;;;;;0.28;0.28;;;18.40;58.10;;;;;;5019174;28;20164;-74
2022/01/10 01:51:04;;;;;;;0.63;0.30;;;18.30;58.10;;;;;;5049079;28;20033;-74
2022/01/10 01:53:30;;;;;;;0.40;0.40;;;18.30;58.10;;;;;;5040578;28;20032;-74
2022/01/10 01:55:59;;;;;;;0.70;0.40;;;18.40;58.30;;;;;;5048247;28;20029;-75
2022/01/10 01:58:25;;;;;;;0.45;0.40;;;18.30;58.20;;;;;;5036379;28;20017;-75
2022/01/10 02:00:51;;;;;;;0.85;0.50;;;18.30;58.20;;;;;;5048426;28;20032;-74
2022/01/10 02:03:16;;;;;;;0.90;0.45;;;18.30;58.30;;;;;;5039447;28;20048;-74
2022/01/10 02:05:42;;;;;;;0.40;0.40;;;18.30;58.30;;;;;;5031590;28;20057;-74
2022/01/10 02:08:09;;;;;;;0.95;0.60;;;18.30;58.30;;;;;;5016360;28;20052;-74
2022/01/10 02:10:35;;;;;;;0.65;0.45;;;18.30;58.30;;;;;;5031585;28;20495;-74
2022/01/10 02:13:01;;;;;;;1.55;0.40;;;18.30;58.30;;;;;;5036086;28;20063;-74
2022/01/10 02:15:35;;;;;;;0.50;0.40;;;18.30;58.40;;;;;;5044372;28;20373;-74
2022/01/10 02:18:00;;;;;;;1.75;0.60;;;18.30;58.40;;;;;;5028720;28;20056;-74
2022/01/10 02:20:30;;;;;;;4.03;0.63;;;18.30;58.40;;;;;;5037521;28;20053;-74
2022/01/10 02:22:56;;;;;;;0.93;0.60;;;18.30;58.40;;;;;;5048422;28;20096;-74
2022/01/10 02:25:22;;;;;;;1.55;0.50;;;18.30;58.50;;;;;;5038126;28;20100;-74
2022/01/10 02:27:48;;;;;;;1.45;0.55;;;18.30;58.50;;;;;;5041264;28;20050;-74
2022/01/10 02:30:13;;;;;;;0.85;0.35;;;18.30;58.50;;;;;;5028800;28;20035;-74
2022/01/10 02:32:39;;;;;;;0.57;0.50;;;18.30;58.60;;;;;;5034909;28;20112;-74
2022/01/10 02:35:05;;;;;;;1.20;0.60;;;18.30;58.60;;;;;;5051132;28;20376;-74
2022/01/10 02:37:32;;;;;;;0.65;0.50;;;18.30;58.60;;;;;;5050970;28;20568;-73
2022/01/10 02:40:01;;;;;;;0.82;0.50;;;18.30;58.60;;;;;;5050672;28;20092;-74
2022/01/10 02:42:27;;;;;;;0.70;0.60;;;18.30;58.60;;;;;;5035316;28;20024;-73
2022/01/10 02:44:53;;;;;;;2.20;0.63;;;18.20;58.60;;;;;;5051124;28;20033;-73
2022/01/10 02:47:18;;;;;;;1.10;0.55;;;18.20;58.60;;;;;;5052285;28;20506;-73
2022/01/10 02:49:44;;;;;;;1.33;0.60;;;18.20;58.70;;;;;;5051302;28;20025;-73
2022/01/10 02:52:09;;;;;;;0.63;0.40;;;18.20;58.70;;;;;;5051142;28;20061;-73
2022/01/10 02:54:35;;;;;;;1.52;0.50;;;18.20;58.70;;;;;;5052136;28;20100;-74
2022/01/10 02:57:01;;;;;;;1.02;0.57;;;18.20;58.70;;;;;;5033832;28;20442;-74
2022/01/10 02:59:26;;;;;;;2.35;0.47;;;18.20;58.70;;;;;;5032445;28;20026;-74
2022/01/10 03:01:52;;;;;;;0.80;0.70;;;18.20;58.80;;;;;;5029734;28;20029;-74
2022/01/10 03:04:18;;;;;;;0.70;0.60;;;18.20;58.80;;;;;;5031159;28;20534;-74
2022/01/10 03:06:44;;;;;;;1.98;0.80;;;18.20;58.80;;;;;;5030959;28;20055;-74
2022/01/10 03:09:10;;;;;;;1.55;0.70;;;18.20;58.90;;;;;;5030790;28;20079;-74
2022/01/10 03:11:37;;;;;;;1.92;0.90;;;18.20;58.90;;;;;;5031272;28;20034;-74
2022/01/10 03:14:02;;;;;;;1.15;0.70;;;18.20;58.90;;;;;;5030987;28;20029;-74
2022/01/10 03:16:28;;;;;;;0.80;0.70;;;18.20;58.90;;;;;;5032195;28;20403;-74
2022/01/10 03:18:54;;;;;;;0.82;0.50;;;18.10;58.90;;;;;;5046151;28;20021;-75
2022/01/10 03:21:20;;;;;;;1.77;0.80;;;18.10;58.90;;;;;;5050888;28;20099;-74
2022/01/10 03:23:50;;;;;;;0.93;0.60;;;18.10;58.90;;;;;;5050524;28;20255;-74
2022/01/10 03:26:16;;;;;;;1.55;0.68;;;18.10;58.90;;;;;;5034279;28;20063;-74
2022/01/10 03:28:42;;;;;;;1.75;0.80;;;18.10;58.90;;;;;;5050571;28;20130;-74
2022/01/10 03:31:08;;;;;;;0.60;0.60;;;18.10;58.90;;;;;;5050993;28;20079;-74
2022/01/10 03:33:33;;;;;;;1.70;0.75;;;18.10;58.90;;;;;;5050833;28;20029;-75
2022/01/10 03:35:59;;;;;;;1.10;0.88;;;18.10;59.00;;;;;;5051710;28;20033;-75
2022/01/10 03:38:24;;;;;;;0.70;0.60;;;18.10;59.00;;;;;;5051858;28;20021;-75
2022/01/10 03:40:50;;;;;;;1.05;0.50;;;18.10;59.10;;;;;;5051859;28;20463;-75
2022/01/10 03:43:16;;;;;;;0.65;0.60;;;18.10;59.10;;;;;;5055860;28;20506;-75
2022/01/10 03:45:41;;;;;;;2.40;1.10;;;18.10;59.10;;;;;;5054515;28;20071;-75
2022/01/10 03:48:07;;;;;;;2.38;0.68;;;18.10;59.10;;;;;;5054415;28;20064;-75
2022/01/10 03:50:32;;;;;;;0.77;0.60;;;18.00;59.10;;;;;;5054461;28;20029;-75
2022/01/10 03:52:58;;;;;;;2.83;1.10;;;18.00;59.10;;;;;;5055133;28;20025;-75
2022/01/10 03:55:24;;;;;;;1.15;0.80;;;18.10;59.20;;;;;;5051841;28;20029;-75
2022/01/10 03:57:49;;;;;;;1.67;0.77;;;18.10;59.20;;;;;;5034344;28;20539;-75
2022/01/10 04:00:15;;;;;;;1.35;0.70;;;18.00;59.20;;;;;;5035593;28;20155;-75
2022/01/10 04:02:45;;;;;;;1.25;0.70;;;18.00;59.20;;;;;;5034303;28;20021;-75
2022/01/10 04:05:10;;;;;;;2.33;1.00;;;18.10;59.30;;;;;;5035197;28;20476;-75
2022/01/10 04:07:37;;;;;;;1.20;0.70;;;18.00;59.20;;;;;;5033809;28;20044;-75
2022/01/10 04:10:04;;;;;;;1.38;0.60;;;18.00;59.20;;;;;;5034084;28;20543;-75
2022/01/10 04:12:29;;;;;;;1.63;0.88;;;18.00;59.30;;;;;;5034064;28;20581;-75
2022/01/10 04:14:55;;;;;;;0.85;0.60;;;18.00;59.30;;;;;;5035213;28;20049;-75
2022/01/10 04:17:21;;;;;;;1.25;0.60;;;18.00;59.30;;;;;;5037759;28;20388;-75
2022/01/10 04:19:46;;;;;;;0.50;0.50;;;18.00;59.30;;;;;;5054903;28;20483;-74
2022/01/10 04:22:12;;;;;;;1.88;0.80;;;18.00;59.30;;;;;;5053583;28;20024;-74
2022/01/10 04:24:38;;;;;;;1.05;0.60;;;18.00;59.30;;;;;;5053931;28;20502;-75
2022/01/10 04:27:04;;;;;;;1.23;0.73;;;18.00;59.40;;;;;;5053597;28;20090;-75
2022/01/10 04:29:29;;;;;;;1.20;0.63;;;18.00;59.40;;;;;;5053781;28;20032;-74
2022/01/10 04:31:55;;;;;;;0.82;0.65;;;18.00;59.40;;;;;;5054678;28;20028;-74
2022/01/10 04:34:20;;;;;;;1.23;0.70;;;17.90;60.40;;;;;;5053690;28;20041;-74
2022/01/10 04:36:46;;;;;;;0.90;0.68;;;18.00;59.40;;;;;;5053324;28;20031;-74
2022/01/10 04:39:12;;;;;;;0.68;0.55;;;18.00;59.50;;;;;;5054722;28;20016;-74
2022/01/10 04:41:39;;;;;;;1.08;0.80;;;17.90;59.40;;;;;;5054770;28;20029;-74
2022/01/10 04:44:06;;;;;;;1.77;0.90;;;18.00;59.50;;;;;;5036987;28;20388;-74
2022/01/10 04:46:32;;;;;;;1.00;0.65;;;18.00;59.50;;;;;;5053526;28;20013;-74
2022/01/10 04:48:58;;;;;;;2.00;0.80;;;17.90;59.50;;;;;;5036596;28;20040;-74
2022/01/10 04:51:24;;;;;;;1.90;0.80;;;17.90;59.50;;;;;;5054403;28;20021;-74
2022/01/10 04:53:50;;;;;;;2.00;0.73;;;17.90;59.50;;;;;;5035197;28;20235;-74
2022/01/10 04:56:16;;;;;;;1.85;0.85;;;17.90;59.50;;;;;;5025574;28;20033;-74
2022/01/10 04:58:42;;;;;;;0.65;0.57;;;17.90;59.60;;;;;;5033362;28;20104;-74
2022/01/10 05:01:09;;;;;;;1.45;0.95;;;17.90;59.60;;;;;;5034379;28;20591;-74
2022/01/10 05:03:34;;;;;;;1.42;0.80;;;17.90;59.60;;;;;;5033157;28;20400;-74
2022/01/10 05:06:00;;;;;;;2.30;0.77;;;17.90;59.60;;;;;;5032729;28;20018;-74
2022/01/10 05:08:26;;;;;;;1.05;0.77;;;17.90;59.60;;;;;;5033153;28;20111;-74
2022/01/10 05:10:51;;;;;;;1.20;0.90;;;17.90;59.60;;;;;;5032970;28;20025;-74
2022/01/10 05:13:17;;;;;;;1.55;0.82;;;17.90;59.60;;;;;;5032857;28;20555;-74
2022/01/10 05:15:46;;;;;;;2.03;0.70;;;17.90;59.60;;;;;;5033166;28;20029;-74
2022/01/10 05:18:12;;;;;;;1.67;0.77;;;17.90;59.70;;;;;;5042248;28;20028;-74
2022/01/10 05:20:37;;;;;;;0.98;0.70;;;17.90;59.70;;;;;;5052458;28;20017;-74
2022/01/10 05:23:03;;;;;;;1.60;0.70;;;17.90;59.80;;;;;;5052612;28;20028;-74
2022/01/10 05:25:28;;;;;;;1.85;0.80;;;17.90;59.70;;;;;;5052692;28;20021;-74
2022/01/10 05:27:54;;;;;;;2.22;1.08;;;17.90;59.80;;;;;;5053521;28;20041;-74
2022/01/10 05:30:20;;;;;;;0.73;0.70;;;17.90;59.80;;;;;;5052527;28;20498;-74
2022/01/10 05:32:46;;;;;;;1.08;0.80;;;17.80;59.80;;;;;;5053560;28;20025;-74
2022/01/10 05:35:12;;;;;;;1.73;0.90;;;17.80;59.70;;;;;;5053247;28;20029;-74
2022/01/10 05:37:37;;;;;;;1.35;0.68;;;17.90;59.80;;;;;;5036034;28;20399;-75
2022/01/10 05:40:03;;;;;;;1.35;0.70;;;17.80;59.80;;;;;;5052373;28;20028;-75
2022/01/10 05:42:29;;;;;;;1.92;1.00;;;17.80;59.80;;;;;;5053673;28;20085;-75
2022/01/10 05:44:54;;;;;;;2.47;1.00;;;17.80;59.80;;;;;;5035547;28;20496;-75
2022/01/10 05:47:20;;;;;;;1.58;0.85;;;17.80;59.90;;;;;;5052237;28;20040;-75
2022/01/10 05:49:48;;;;;;;2.53;0.98;;;17.80;59.80;;;;;;5053223;28;20021;-75
2022/01/10 05:52:14;;;;;;;1.00;0.70;;;17.80;59.90;;;;;;5053212;28;20108;-75
2022/01/10 05:54:40;;;;;;;1.55;0.85;;;17.80;59.90;;;;;;5053283;28;20230;-75
2022/01/10 05:57:06;;;;;;;2.03;1.05;;;17.80;60.00;;;;;;5035115;28;20573;-75
2022/01/10 05:59:31;;;;;;;2.83;0.98;;;17.80;60.00;;;;;;5032007;28;20021;-75
2022/01/10 06:01:58;;;;;;;1.98;1.00;;;17.80;60.00;;;;;;5032030;28;20404;-75
2022/01/10 06:04:23;;;;;;;2.35;0.98;;;17.80;60.00;;;;;;5031399;28;20476;-75
2022/01/10 06:06:49;;;;;;;2.22;1.08;;;17.80;60.00;;;;;;5033232;28;20041;-75
2022/01/10 06:09:15;;;;;;;3.15;1.30;;;17.80;60.00;;;;;;5031782;28;20036;-75
2022/01/10 06:11:40;;;;;;;2.03;1.00;;;17.80;60.00;;;;;;5031843;28;20087;-75
2022/01/10 06:14:07;;;;;;;1.88;0.98;;;17.80;60.10;;;;;;5031668;28;20629;-74
2022/01/10 06:16:33;;;;;;;1.92;1.02;;;17.80;60.00;;;;;;5031670;28;20071;-75
2022/01/10 06:18:59;;;;;;;2.28;1.25;;;17.80;60.00;;;;;;5049029;28;20053;-75
2022/01/10 06:21:25;;;;;;;2.30;1.08;;;17.70;60.00;;;;;;5051674;28;20454;-75
2022/01/10 06:23:50;;;;;;;1.70;1.00;;;17.80;60.10;;;;;;5051559;28;20082;-75
2022/01/10 06:26:16;;;;;;;2.75;1.23;;;17.70;60.10;;;;;;5051454;28;20048;-75
2022/01/10 06:28:41;;;;;;;2.42;1.33;;;17.70;60.10;;;;;;5052648;28;20499;-75
2022/01/10 06:31:07;;;;;;;2.55;0.93;;;17.70;60.10;;;;;;5052207;28;20028;-74
2022/01/10 06:33:33;;;;;;;2.30;0.95;;;17.70;60.10;;;;;;5031484;28;20422;-75
2022/01/10 06:35:58;;;;;;;3.67;1.20;;;17.70;60.20;;;;;;5050230;28;20079;-74
2022/01/10 06:38:24;;;;;;;2.65;1.20;;;17.70;60.10;;;;;;5049347;28;20021;-75
2022/01/10 06:40:49;;;;;;;2.97;1.27;;;17.70;60.20;;;;;;5049412;28;20052;-75
2022/01/10 06:43:15;;;;;;;3.72;1.50;;;17.70;61.20;;;;;;5048418;28;20099;-75
2022/01/10 06:45:41;;;;;;;2.50;1.13;;;17.70;60.20;;;;;;5029314;28;20071;-75
2022/01/10 06:48:06;;;;;;;2.85;1.00;;;17.70;60.30;;;;;;5040545;28;20029;-72
2022/01/10 06:50:32;;;;;;;2.45;1.25;;;17.70;60.30;;;;;;5038952;28;20060;-72
2022/01/10 06:52:58;;;;;;;2.88;1.30;;;17.70;60.30;;;;;;5039079;28;20029;-73
2022/01/10 06:55:23;;;;;;;1.80;1.05;;;17.70;60.30;;;;;;5047953;28;20044;-73
2022/01/10 06:57:49;;;;;;;3.60;1.10;;;17.70;60.30;;;;;;5036860;28;20014;-72
2022/01/10 07:00:15;;;;;;;1.88;1.25;;;17.80;60.40;;;;;;5045322;28;20017;-72
2022/01/10 07:02:41;;;;;;;2.08;1.00;;;17.80;60.40;;;;;;5047370;28;20391;-72
2022/01/10 07:05:07;;;;;;;2.97;1.17;;;17.70;60.30;;;;;;5042545;28;20518;-73
2022/01/10 07:07:32;;;;;;;1.95;1.17;;;17.80;60.40;;;;;;5042272;28;20029;-73
2022/01/10 07:09:58;;;;;;;2.25;0.93;;;17.80;60.40;;;;;;5044065;28;20037;-73
2022/01/10 07:12:24;;;;;;;2.30;1.20;;;17.80;60.40;;;;;;5029903;28;20026;-73
2022/01/10 07:14:49;;;;;;;1.48;0.82;;;17.80;60.30;;;;;;5030646;28;20033;-73
2022/01/10 07:17:15;;;;;;;3.15;1.40;;;17.90;60.40;;;;;;5036476;28;20100;-73
2022/01/10 07:19:41;;;;;;;3.17;1.30;;;17.90;60.40;;;;;;5054352;28;20031;-73
2022/01/10 07:22:06;;;;;;;2.40;0.85;;;17.90;60.40;;;;;;5047668;28;20025;-73
2022/01/10 07:24:32;;;;;;;1.77;1.20;;;17.90;60.40;;;;;;5046647;28;20056;-73
2022/01/10 07:26:58;;;;;;;2.20;1.13;;;17.90;60.40;;;;;;5039195;28;20188;-73
2022/01/10 07:29:24;;;;;;;2.95;1.05;;;17.90;60.40;;;;;;5050433;28;20029;-73
2022/01/10 07:31:49;;;;;;;2.97;1.30;;;17.90;60.40;;;;;;5040640;28;20063;-73
2022/01/10 07:34:15;;;;;;;3.05;1.33;;;18.00;60.40;;;;;;5045123;28;20033;-73
2022/01/10 07:36:42;;;;;;;3.08;1.40;;;17.90;60.40;;;;;;5048494;28;20104;-72
2022/01/10 07:39:07;;;;;;;1.85;1.10;;;17.90;60.30;;;;;;5021525;28;20487;-80
2022/01/10 07:41:33;;;;;;;4.97;1.50;;;18.00;60.40;;;;;;5037125;28;20078;-76
2022/01/10 07:43:59;;;;;;;6.93;2.13;;;18.00;60.40;;;;;;5054221;28;20022;-76
2022/01/10 07:46:25;;;;;;;5.30;2.15;;;18.00;60.50;;;;;;5054151;28;20218;-76
2022/01/10 07:48:54;;;;;;;9.90;2.85;;;18.00;60.60;;;;;;5052868;28;20091;-76
2022/01/10 07:51:19;;;;;;;10.00;2.45;;;18.00;60.60;;;;;;5052949;28;20029;-76
2022/01/10 07:53:45;;;;;;;9.52;3.50;;;18.10;60.60;;;;;;5054381;28;20083;-76
2022/01/10 07:56:11;;;;;;;7.47;2.63;;;18.10;60.60;;;;;;5025716;28;20106;-76
2022/01/10 07:58:36;;;;;;;8.80;2.78;;;18.10;60.70;;;;;;5016695;28;20025;-76
2022/01/10 08:01:02;;;;;;;7.65;2.53;;;18.10;60.70;;;;;;5034712;28;20024;-76
2022/01/10 08:03:28;;;;;;;8.45;3.00;;;18.10;60.70;;;;;;5039515;28;20020;-76
2022/01/10 08:05:53;;;;;;;5.65;2.47;;;18.10;60.70;;;;;;5040220;28;20499;-76
2022/01/10 08:08:19;;;;;;;8.02;2.85;;;18.10;60.70;;;;;;5051408;28;20029;-76
2022/01/10 08:10:45;;;;;;;7.03;2.53;;;18.20;60.70;;;;;;5035089;28;20387;-76
2022/01/10 08:13:10;;;;;;;8.40;2.42;;;18.20;60.80;;;;;;5033784;28;20036;-76
2022/01/10 08:15:36;;;;;;;6.95;2.47;;;18.20;60.70;;;;;;5033807;28;20029;-76
2022/01/10 08:18:02;;;;;;;3.78;2.03;;;18.20;60.80;;;;;;5017452;28;20029;-76
2022/01/10 08:20:28;;;;;;;7.20;2.33;;;18.20;60.80;;;;;;5045898;28;20479;-76
2022/01/10 08:22:54;;;;;;;6.13;2.08;;;18.20;60.80;;;;;;5037274;28;20125;-76
2022/01/10 08:25:19;;;;;;;8.73;2.28;;;18.20;60.80;;;;;;5053613;28;20210;-76
2022/01/10 08:27:45;;;;;;;6.05;2.15;;;18.20;60.80;;;;;;5054267;28;20076;-76
2022/01/10 08:30:11;;;;;;;5.60;2.08;;;18.20;60.80;;;;;;5037163;28;20055;-76
2022/01/10 08:32:36;;;;;;;8.05;2.17;;;18.20;60.80;;;;;;5053490;28;20029;-76
2022/01/10 08:35:03;;;;;;;3.78;2.17;;;18.20;60.90;;;;;;5053780;28;20087;-76
2022/01/10 08:37:29;;;;;;;6.35;2.20;;;18.20;60.80;;;;;;5033491;28;20030;-76
2022/01/10 08:39:54;;;;;;;5.72;2.22;;;18.20;60.80;;;;;;5033680;28;20014;-76
2022/01/10 08:42:21;;;;;;;5.20;1.95;;;18.20;60.80;;;;;;5033202;28;20029;-76
2022/01/10 08:44:46;;;;;;;5.53;2.05;;;18.20;60.80;;;;;;5017123;28;20025;-76
2022/01/10 08:47:12;;;;;;;5.57;2.25;;;18.20;60.80;;;;;;5016953;28;20029;-76
2022/01/10 08:49:38;;;;;;;5.35;1.95;;;18.20;61.10;;;;;;5033314;28;20075;-76
2022/01/10 08:52:04;;;;;;;5.45;1.80;;;18.20;60.80;;;;;;5033236;28;20403;-76
2022/01/10 08:54:29;;;;;;;4.63;1.70;;;18.20;60.80;;;;;;5034375;28;20104;-76
2022/01/10 08:56:55;;;;;;;6.90;1.80;;;18.20;60.80;;;;;;5016391;28;20045;-76
2022/01/10 08:59:21;;;;;;;6.22;2.15;;;18.20;60.80;;;;;;5033161;28;20067;-76
2022/01/10 09:01:47;;;;;;;6.05;2.22;;;18.20;60.80;;;;;;5033332;28;20490;-76
2022/01/10 09:04:16;;;;;;;5.38;2.03;;;18.20;60.80;;;;;;5034234;28;20029;-76
2022/01/10 09:06:48;;;;;;;5.07;2.53;;;18.30;60.90;;;;;;5033034;28;20104;-76
2022/01/10 09:09:14;;;;;;;3.58;1.70;;;18.30;60.80;;;;;;5032999;28;20392;-76
2022/01/10 09:11:40;;;;;;;4.78;2.00;;;18.20;60.90;;;;;;5044768;28;20025;-76
2022/01/10 09:14:06;;;;;;;5.70;2.20;;;18.30;60.90;;;;;;5036425;28;20029;-76
2022/01/10 09:16:31;;;;;;;3.22;1.73;;;18.30;60.80;;;;;;5052831;28;20033;-76
2022/01/10 09:18:57;;;;;;;5.28;2.00;;;18.20;60.80;;;;;;5019666;28;20503;-76
2022/01/10 09:21:23;;;;;;;2.65;1.38;;;18.30;60.80;;;;;;5052592;28;20104;-76
2022/01/10 09:23:48;;;;;;;4.55;1.80;;;18.30;60.80;;;;;;5052851;28;20092;-76
2022/01/10 09:26:14;;;;;;;3.58;1.55;;;18.30;60.80;;;;;;5052183;28;20083;-76
2022/01/10 09:28:39;;;;;;;3.53;1.80;;;18.30;60.80;;;;;;5052518;28;20029;-76
2022/01/10 09:31:05;;;;;;;3.20;1.80;;;18.30;60.80;;;;;;5053786;28;20079;-76
2022/01/10 09:33:31;;;;;;;4.25;1.92;;;18.30;60.80;;;;;;5052214;28;20457;-76
2022/01/10 09:35:56;;;;;;;4.57;1.88;;;18.30;60.80;;;;;;5035818;28;20025;-76
2022/01/10 09:38:22;;;;;;;2.90;1.63;;;18.30;60.80;;;;;;5052108;28;20364;-76
2022/01/10 09:40:48;;;;;;;3.17;1.52;;;18.30;60.80;;;;;;5051665;28;20074;-76
2022/01/10 09:43:15;;;;;;;3.40;1.92;;;18.30;60.80;;;;;;5053516;28;20028;-76
2022/01/10 09:45:40;;;;;;;1.67;1.27;;;18.30;60.80;;;;;;5052357;28;20036;-76
2022/01/10 09:48:06;;;;;;;5.32;1.85;;;18.30;60.80;;;;;;5052376;28;20029;-76
2022/01/10 09:50:32;;;;;;;3.50;1.95;;;18.30;60.80;;;;;;5051989;28;20028;-76
2022/01/10 09:52:57;;;;;;;3.38;1.42;;;18.30;60.80;;;;;;5052378;28;20059;-76
2022/01/10 09:55:23;;;;;;;3.45;1.77;;;18.30;60.80;;;;;;5047684;28;20033;-76
2022/01/10 09:57:49;;;;;;;3.60;1.90;;;18.30;60.80;;;;;;5032142;28;20044;-76
2022/01/10 10:00:15;;;;;;;3.20;1.77;;;18.30;60.80;;;;;;5032201;28;20033;-76
2022/01/10 10:02:41;;;;;;;2.88;1.42;;;18.30;60.80;;;;;;5032151;28;20387;-76
2022/01/10 10:05:09;;;;;;;3.03;1.50;;;18.30;60.80;;;;;;5032168;28;20025;-76
2022/01/10 10:07:38;;;;;;;3.22;1.60;;;18.30;60.80;;;;;;5031806;28;20026;-76
2022/01/10 10:10:11;;;;;;;3.13;1.45;;;18.40;60.90;;;;;;5031552;28;20036;-76
2022/01/10 10:12:38;;;;;;;2.72;1.60;;;18.40;60.90;;;;;;5051781;28;20021;-76
2022/01/10 10:15:06;;;;;;;2.30;1.60;;;18.30;60.80;;;;;;5051756;28;20033;-76
2022/01/10 10:17:31;;;;;;;3.80;1.67;;;18.30;60.80;;;;;;5052804;28;20025;-76
2022/01/10 10:19:57;;;;;;;3.20;1.65;;;18.40;60.80;;;;;;5052813;28;20033;-76
2022/01/10 10:22:23;;;;;;;1.92;1.25;;;18.40;60.90;;;;;;5051378;28;20056;-76
2022/01/10 10:24:49;;;;;;;3.17;1.40;;;18.30;60.80;;;;;;5034937;28;20099;-76
2022/01/10 10:27:20;;;;;;;3.40;1.42;;;18.40;60.90;;;;;;5052541;28;20036;-76
2022/01/10 10:29:46;;;;;;;4.30;1.70;;;18.40;60.90;;;;;;5035089;28;20112;-76
2022/01/10 10:32:15;;;;;;;4.30;1.75;;;18.40;60.90;;;;;;5052616;28;20085;-76
2022/01/10 10:34:40;;;;;;;3.13;1.30;;;18.30;60.80;;;;;;5052713;28;20388;-76
2022/01/10 10:37:11;;;;;;;3.20;1.50;;;18.40;60.90;;;;;;5051588;28;20021;-76
2022/01/10 10:39:38;;;;;;;2.70;1.55;;;18.30;60.80;;;;;;5050960;28;20021;-76
2022/01/10 10:42:06;;;;;;;2.20;1.27;;;18.40;61.90;;;;;;5034804;28;20017;-76
2022/01/10 10:44:32;;;;;;;3.65;1.60;;;18.40;60.80;;;;;;5034808;28;20503;-76
2022/01/10 10:46:58;;;;;;;2.97;1.40;;;18.40;60.90;;;;;;5052444;28;20027;-76
2022/01/10 10:49:40;;;;;;;2.50;1.30;;;18.40;60.90;;;;;;5052221;28;20017;-76
2022/01/10 10:52:07;;;;;;;3.40;1.25;;;18.40;60.80;;;;;;5051005;28;20025;-76
2022/01/10 10:54:34;;;;;;;4.72;1.63;;;18.30;60.80;;;;;;5051133;28;20103;-76
2022/01/10 10:57:00;;;;;;;2.03;1.10;;;18.40;60.80;;;;;;5050880;28;20025;-76
2022/01/10 10:59:29;;;;;;;2.35;1.42;;;18.40;60.90;;;;;;5050742;28;20093;-76
2022/01/10 11:01:55;;;;;;;4.70;1.60;;;18.40;60.90;;;;;;5035066;28;20108;-76
2022/01/10 11:04:21;;;;;;;2.55;1.27;;;18.30;60.80;;;;;;5051073;28;20506;-76
2022/01/10 11:06:47;;;;;;;4.00;1.45;;;18.40;60.90;;;;;;5050507;28;20025;-76
2022/01/10 11:09:14;;;;;;;3.33;1.90;;;18.40;61.90;;;;;;5050838;28;20517;-76
2022/01/10 11:11:41;;;;;;;2.20;1.27;;;18.40;60.80;;;;;;5038653;28;20041;-76
2022/01/10 11:14:07;;;;;;;2.85;1.48;;;18.40;60.90;;;;;;5031176;28;20060;-76
2022/01/10 11:16:33;;;;;;;1.60;1.10;;;18.40;60.90;;;;;;5030842;28;20034;-76
2022/01/10 11:18:59;;;;;;;3.22;1.10;;;18.40;60.80;;;;;;5031024;28;20555;-76
2022/01/10 11:21:24;;;;;;;2.45;1.33;;;18.40;60.80;;;;;;5030540;28;20018;-76
2022/01/10 11:23:50;;;;;;;2.60;1.45;;;18.40;60.80;;;;;;5030912;28;20080;-76
2022/01/10 11:26:17;;;;;;;2.92;1.13;;;18.40;60.80;;;;;;5031867;28;20064;-76
2022/01/10 11:28:50;;;;;;;1.95;1.13;;;18.40;60.80;;;;;;5030853;28;20500;-76
2022/01/10 11:31:23;;;;;;;2.70;1.13;;;18.40;60.80;;;;;;5030858;28;20025;-76
2022/01/10 11:33:49;;;;;;;1.40;1.00;;;18.40;60.70;;;;;;5030716;28;20029;-76
2022/01/10 11:36:15;;;;;;;2.13;1.00;;;18.40;60.80;;;;;;5030413;28;20065;-76
2022/01/10 11:38:48;;;;;;;2.50;1.20;;;18.40;60.80;;;;;;5030698;28;20053;-76
2022/01/10 11:41:25;;;;;;;2.20;1.00;;;18.40;60.90;;;;;;5032188;28;20013;-76
2022/01/10 11:44:06;;;;;;;2.10;1.30;;;18.40;60.70;;;;;;5030821;28;20080;-76
2022/01/10 11:46:42;;;;;;;1.45;0.82;;;18.30;60.70;;;;;;5030612;28;20030;-76
2022/01/10 11:49:18;;;;;;;2.55;1.25;;;18.40;60.80;;;;;;5030863;28;20543;-76
2022/01/10 11:51:45;;;;;;;1.77;1.02;;;18.40;60.80;;;;;;5030219;28;20034;-76
2022/01/10 11:54:22;;;;;;;1.65;1.05;;;18.30;60.70;;;;;;5031858;28;20621;-76
2022/01/10 11:56:54;;;;;;;1.67;1.13;;;18.40;60.80;;;;;;5031488;28;20021;-76
2022/01/10 11:59:29;;;;;;;1.63;1.17;;;18.40;60.80;;;;;;5030377;28;20034;-76
2022/01/10 12:01:59;;;;;;;1.10;1.00;;;18.40;60.80;;;;;;5030728;28;20080;-76
2022/01/10 12:04:27;;;;;;;1.60;1.10;;;18.40;60.80;;;;;;5034408;28;20025;-76
2022/01/10 12:06:53;;;;;;;1.80;1.10;;;18.30;60.80;;;;;;5033795;28;20021;-76
2022/01/10 12:09:18;;;;;;;2.47;1.00;;;18.40;60.80;;;;;;5034271;28;20032;-76
2022/01/10 12:11:46;;;;;;;2.63;1.13;;;18.40;61.80;;;;;;5046588;28;20021;-76
2022/01/10 12:14:11;;;;;;;3.00;1.45;;;18.40;60.70;;;;;;5054126;28;20017;-76
2022/01/10 12:16:37;;;;;;;1.15;0.93;;;18.40;61.80;;;;;;5037108;28;20128;-76
2022/01/10 12:19:03;;;;;;;1.60;1.05;;;18.40;60.70;;;;;;5037238;28;20021;-76
2022/01/10 12:21:29;;;;;;;2.03;0.90;;;18.40;60.70;;;;;;5053647;28;20463;-76
2022/01/10 12:23:55;;;;;;;1.50;0.77;;;18.40;60.70;;;;;;5037309;28;20371;-76
2022/01/10 12:26:21;;;;;;;2.13;1.20;;;18.40;60.70;;;;;;5054866;28;20079;-76
2022/01/10 12:28:52;;;;;;;1.80;1.13;;;18.40;60.80;;;;;;5053641;28;20063;-76
2022/01/10 12:31:19;;;;;;;0.90;0.68;;;18.40;60.70;;;;;;5054896;28;20028;-76
2022/01/10 12:33:45;;;;;;;1.48;1.00;;;18.40;60.70;;;;;;5054406;28;20025;-76
2022/01/10 12:36:11;;;;;;;1.65;1.02;;;18.40;60.70;;;;;;5036821;28;20028;-76
2022/01/10 12:38:38;;;;;;;1.30;0.73;;;18.40;60.70;;;;;;5053489;28;20103;-76
2022/01/10 12:41:04;;;;;;;1.20;0.63;;;18.40;60.70;;;;;;5037220;28;20028;-76
2022/01/10 12:43:29;;;;;;;2.60;1.10;;;18.40;60.70;;;;;;5053422;28;20399;-76
2022/01/10 12:45:55;;;;;;;1.27;0.80;;;18.40;60.70;;;;;;5054443;28;20036;-76
2022/01/10 12:48:23;;;;;;;2.30;0.98;;;18.40;60.70;;;;;;5052999;28;20029;-76
2022/01/10 12:50:51;;;;;;;1.58;0.60;;;18.40;60.70;;;;;;5036677;28;20032;-76
2022/01/10 12:53:17;;;;;;;0.98;0.80;;;18.40;60.70;;;;;;5054552;28;20031;-76
2022/01/10 12:55:42;;;;;;;1.95;0.98;;;18.40;60.70;;;;;;5046502;28;20030;-76